createdAt,value
2022-12-29T00:01:42.627Z,0.75
2022-12-29T00:04:15.174Z,0.80
2022-12-29T00:06:43.261Z,0.90
2022-12-29T00:09:12.407Z,0.93
2022-12-29T00:11:40.021Z,0.70
2022-12-29T00:14:26.362Z,0.60
2022-12-29T00:16:53.129Z,0.85
2022-12-29T00:19:38.142Z,0.90
2022-12-29T00:22:23.299Z,0.52
2022-12-29T00:24:55.855Z,0.50
2022-12-29T00:27:41.195Z,0.50
2022-12-29T00:30:31.439Z,0.68
2022-12-29T00:33:16.429Z,0.52
2022-12-29T00:35:54.630Z,0.80
2022-12-29T00:38:40.809Z,0.70
2022-12-29T00:41:25.915Z,0.65
2022-12-29T00:44:07.733Z,0.70
2022-12-29T00:46:38.670Z,0.60
2022-12-29T00:49:25.656Z,0.60
2022-12-29T00:51:52.940Z,0.40
2022-12-29T00:54:19.914Z,0.57
2022-12-29T00:56:51.200Z,0.50
2022-12-29T00:59:18.889Z,0.57
2022-12-29T01:01:46.017Z,0.52
2022-12-29T01:04:12.930Z,0.53
2022-12-29T01:06:41.029Z,0.60
2022-12-29T01:09:27.367Z,0.50
2022-12-29T01:11:54.299Z,0.50
2022-12-29T01:14:21.517Z,0.30
2022-12-29T01:16:48.253Z,0.50
2022-12-29T01:19:16.146Z,0.40
2022-12-29T01:21:45.289Z,0.38
2022-12-29T01:24:11.961Z,0.30
2022-12-29T01:26:38.564Z,0.40
2022-12-29T01:29:05.806Z,0.30
2022-12-29T01:31:32.410Z,0.30
2022-12-29T01:33:59.181Z,0.30
2022-12-29T01:36:26.165Z,0.22
2022-12-29T01:38:52.948Z,0.40
2022-12-29T01:41:19.574Z,0.50
2022-12-29T01:43:48.803Z,0.40
2022-12-29T01:46:20.442Z,0.30
2022-12-29T01:48:50.076Z,0.20
2022-12-29T01:51:17.885Z,0.30
2022-12-29T01:53:46.253Z,0.30
2022-12-29T01:56:17.265Z,0.50
2022-12-29T01:58:47.500Z,0.60
2022-12-29T02:01:15.272Z,0.30
2022-12-29T02:03:42.227Z,0.30
2022-12-29T02:06:14.048Z,0.40
2022-12-29T02:08:41.734Z,0.20
2022-12-29T02:11:08.635Z,0.30
2022-12-29T02:13:35.191Z,0.40
2022-12-29T02:16:13.972Z,0.40
2022-12-29T02:18:56.504Z,0.40
2022-12-29T02:22:00.621Z,0.43
2022-12-29T02:24:40.421Z,0.30
2022-12-29T02:27:12.867Z,0.50
2022-12-29T02:29:51.464Z,0.35
2022-12-29T02:32:36.256Z,0.33
2022-12-29T02:35:05.711Z,0.30
2022-12-29T02:38:05.540Z,0.30
2022-12-29T02:41:03.981Z,0.38
2022-12-29T02:43:48.857Z,0.30
2022-12-29T02:46:28.975Z,0.27
2022-12-29T02:49:06.234Z,0.13
2022-12-29T02:52:01.936Z,0.20
2022-12-29T02:54:44.157Z,0.20
2022-12-29T02:57:29.878Z,0.30
2022-12-29T03:00:02.033Z,0.20
2022-12-29T03:03:02.472Z,0.20
2022-12-29T03:05:58.687Z,0.10
2022-12-29T03:08:49.479Z,0.20
2022-12-29T03:11:35.197Z,0.20
2022-12-29T03:14:40.724Z,0.10
2022-12-29T03:17:13.611Z,0.20
2022-12-29T03:19:47.442Z,0.20
2022-12-29T03:22:32.300Z,0.10
2022-12-29T03:25:11.338Z,0.20
2022-12-29T03:27:46.889Z,0.30
2022-12-29T03:30:14.120Z,0.35
2022-12-29T03:32:47.169Z,0.20
2022-12-29T03:35:17.363Z,0.30
2022-12-29T03:37:50.596Z,0.30
2022-12-29T03:40:17.816Z,0.30
2022-12-29T03:42:45.219Z,0.30
2022-12-29T03:45:11.975Z,0.20
2022-12-29T03:47:38.591Z,0.40
2022-12-29T03:50:05.472Z,0.32
2022-12-29T03:52:32.006Z,0.50
2022-12-29T03:54:58.524Z,0.40
2022-12-29T03:57:24.946Z,0.40
2022-12-29T03:59:51.435Z,0.32
2022-12-29T04:02:18.465Z,0.40
2022-12-29T04:04:45.222Z,0.40
2022-12-29T04:07:11.695Z,0.30
2022-12-29T04:09:38.245Z,0.40
2022-12-29T04:12:04.976Z,0.30
2022-12-29T04:14:31.537Z,0.30
2022-12-29T04:16:58.074Z,0.40
2022-12-29T04:19:24.686Z,0.50
2022-12-29T04:21:51.223Z,0.28
2022-12-29T04:24:17.949Z,0.20
2022-12-29T04:26:45.365Z,0.65
2022-12-29T04:29:11.877Z,0.30
2022-12-29T04:31:38.436Z,0.38
2022-12-29T04:34:04.925Z,0.20
2022-12-29T04:36:31.396Z,0.20
2022-12-29T04:38:58.029Z,0.20
2022-12-29T04:41:24.892Z,0.10
2022-12-29T04:43:51.536Z,0.30
2022-12-29T04:46:18.445Z,0.60
2022-12-29T04:48:45.032Z,0.30
2022-12-29T04:51:11.544Z,0.32
2022-12-29T04:53:38.069Z,0.20
2022-12-29T04:56:04.783Z,0.20
2022-12-29T04:58:31.240Z,0.68
2022-12-29T05:00:57.731Z,0.30
2022-12-29T05:03:24.330Z,0.30
2022-12-29T05:05:54.744Z,0.73
2022-12-29T05:08:27.641Z,0.30
2022-12-29T05:10:55.059Z,0.30
2022-12-29T05:13:21.522Z,0.77
2022-12-29T05:15:54.936Z,0.40
2022-12-29T05:18:21.473Z,0.30
2022-12-29T05:20:48.356Z,0.20
2022-12-29T05:23:14.946Z,0.30
2022-12-29T05:25:41.390Z,0.25
2022-12-29T05:28:07.880Z,0.25
2022-12-29T05:30:34.426Z,0.50
2022-12-29T05:33:00.927Z,0.50
2022-12-29T05:35:27.568Z,0.20
2022-12-29T05:37:54.126Z,0.38
2022-12-29T05:40:20.576Z,0.30
2022-12-29T05:42:47.035Z,0.20
2022-12-29T05:45:13.511Z,0.30
2022-12-29T05:47:40.925Z,0.20
2022-12-29T05:50:07.862Z,0.30
2022-12-29T05:52:34.348Z,0.20
2022-12-29T05:55:01.023Z,0.53
2022-12-29T05:57:27.480Z,0.40
2022-12-29T05:59:53.999Z,0.32
2022-12-29T06:02:20.554Z,0.40
2022-12-29T06:04:47.107Z,0.32
2022-12-29T06:07:13.626Z,0.20
2022-12-29T06:09:40.409Z,0.20
2022-12-29T06:12:07.209Z,0.43
2022-12-29T06:14:33.693Z,0.40
2022-12-29T06:17:00.897Z,0.30
2022-12-29T06:19:27.427Z,0.20
2022-12-29T06:21:54.629Z,0.22
2022-12-29T06:24:21.573Z,0.65
2022-12-29T06:26:48.074Z,0.60
2022-12-29T06:29:17.835Z,0.20
2022-12-29T06:31:46.594Z,0.20
2022-12-29T06:34:14.026Z,0.30
2022-12-29T06:36:40.552Z,0.30
2022-12-29T06:39:07.309Z,0.28
2022-12-29T06:41:33.809Z,1.00
2022-12-29T06:44:00.290Z,0.50
2022-12-29T06:46:26.873Z,0.77
2022-12-29T06:48:53.362Z,0.40
2022-12-29T06:51:19.878Z,0.38
2022-12-29T06:53:46.331Z,0.30
2022-12-29T06:56:12.932Z,0.50
2022-12-29T06:58:39.403Z,0.40
2022-12-29T07:01:05.959Z,0.82
2022-12-29T07:03:32.571Z,0.68
2022-12-29T07:05:59.148Z,0.57
2022-12-29T07:08:25.689Z,0.40
2022-12-29T07:10:52.202Z,0.50
2022-12-29T07:13:18.732Z,0.30
2022-12-29T07:15:45.239Z,0.30
2022-12-29T07:18:11.774Z,0.20
2022-12-29T07:20:38.257Z,0.20
2022-12-29T07:23:04.768Z,0.32
2022-12-29T07:25:31.270Z,0.40
2022-12-29T07:27:57.875Z,0.28
2022-12-29T07:30:24.325Z,0.63
2022-12-29T07:32:50.850Z,0.30
2022-12-29T07:35:17.590Z,0.38
2022-12-29T07:37:44.207Z,0.57
2022-12-29T07:40:11.856Z,0.30
2022-12-29T07:42:38.432Z,0.40
2022-12-29T07:45:05.643Z,0.30
2022-12-29T07:47:32.196Z,0.40
2022-12-29T07:49:58.661Z,0.40
2022-12-29T07:52:25.108Z,0.30
2022-12-29T07:54:51.574Z,0.52
2022-12-29T07:57:18.377Z,0.20
2022-12-29T07:59:44.889Z,0.47
2022-12-29T08:02:12.717Z,0.35
2022-12-29T08:04:39.306Z,0.40
2022-12-29T08:07:05.844Z,0.60
2022-12-29T08:09:32.335Z,0.47
2022-12-29T08:11:58.793Z,0.63
2022-12-29T08:14:25.281Z,0.52
2022-12-29T08:16:51.796Z,0.30
2022-12-29T08:19:18.476Z,0.52
2022-12-29T08:21:45.028Z,0.43
2022-12-29T08:24:11.545Z,0.50
2022-12-29T08:26:38.069Z,0.30
2022-12-29T08:29:04.682Z,0.40
2022-12-29T08:31:31.268Z,0.63
2022-12-29T08:33:57.829Z,0.50
2022-12-29T08:36:24.456Z,0.77
2022-12-29T08:38:50.906Z,0.50
2022-12-29T08:41:17.399Z,0.38
2022-12-29T08:43:47.656Z,0.28
2022-12-29T08:46:14.485Z,0.83
2022-12-29T08:48:41.003Z,0.60
2022-12-29T08:51:08.746Z,0.40
2022-12-29T08:53:35.441Z,0.52
2022-12-29T08:56:05.427Z,0.40
2022-12-29T08:58:32.653Z,0.70
2022-12-29T09:00:59.945Z,0.30
2022-12-29T09:03:55.081Z,0.47
2022-12-29T09:06:14.153Z,0.65
2022-12-29T09:08:40.863Z,0.40
2022-12-29T09:11:12.282Z,0.40
2022-12-29T09:13:39.274Z,0.30
2022-12-29T09:16:06.225Z,0.30
2022-12-29T09:18:33.247Z,0.40
2022-12-29T09:21:03.686Z,0.88
2022-12-29T09:23:30.429Z,0.40
2022-12-29T09:25:57.517Z,0.60
2022-12-29T09:28:24.342Z,0.70
2022-12-29T09:30:51.671Z,0.40
2022-12-29T09:33:18.682Z,0.68
2022-12-29T09:35:46.467Z,0.37
2022-12-29T09:38:13.166Z,0.32
2022-12-29T09:40:40.456Z,0.25
2022-12-29T09:43:25.200Z,0.50
2022-12-29T09:46:27.681Z,0.80
2022-12-29T09:49:09.698Z,0.47
2022-12-29T09:51:39.920Z,0.63
2022-12-29T09:54:54.987Z,0.63
2022-12-29T09:57:39.603Z,0.70
2022-12-29T10:00:18.837Z,0.65
2022-12-29T10:02:49.230Z,0.70
2022-12-29T10:05:24.987Z,0.40
2022-12-29T10:08:00.637Z,0.60
2022-12-29T10:10:41.791Z,0.95
2022-12-29T10:13:11.317Z,0.47
2022-12-29T10:16:17.749Z,0.30
2022-12-29T10:19:32.890Z,0.50
2022-12-29T10:22:15.030Z,0.60
2022-12-29T10:24:45.064Z,0.60
2022-12-29T10:27:13.689Z,0.40
2022-12-29T10:29:53.180Z,0.60
2022-12-29T10:33:04.220Z,0.50
2022-12-29T10:35:41.576Z,0.73
2022-12-29T10:38:20.279Z,0.63
2022-12-29T10:41:01.471Z,0.65
2022-12-29T10:43:32.135Z,0.73
2022-12-29T10:46:03.597Z,0.80
2022-12-29T10:48:33.799Z,0.50
2022-12-29T10:51:06.041Z,0.80
2022-12-29T10:53:48.076Z,1.42
2022-12-29T10:56:32.657Z,0.70
2022-12-29T10:59:04.458Z,0.98
2022-12-29T11:01:44.163Z,0.90
2022-12-29T11:04:43.379Z,1.00
2022-12-29T11:07:15.921Z,0.40
2022-12-29T11:09:45.306Z,0.63
2022-12-29T11:12:22.824Z,0.88
2022-12-29T11:15:01.783Z,1.10
2022-12-29T11:17:28.343Z,0.90
2022-12-29T11:19:54.833Z,1.10
2022-12-29T11:22:28.762Z,1.73
2022-12-29T11:25:05.741Z,1.00
2022-12-29T11:27:33.845Z,1.00
2022-12-29T11:30:00.306Z,1.25
2022-12-29T11:32:29.460Z,1.35
2022-12-29T11:34:58.715Z,0.87
2022-12-29T11:37:32.477Z,0.93
2022-12-29T11:40:27.340Z,0.90
2022-12-29T11:43:00.881Z,1.00
2022-12-29T11:45:34.531Z,0.93
2022-12-29T11:48:08.945Z,0.77
2022-12-29T11:50:40.043Z,0.90
2022-12-29T11:53:19.482Z,1.00
2022-12-29T11:55:57.063Z,0.80
2022-12-29T11:58:33.295Z,1.10
2022-12-29T12:01:35.685Z,1.30
2022-12-29T12:04:13.184Z,0.60
2022-12-29T12:06:47.242Z,0.60
2022-12-29T12:09:26.132Z,1.08
2022-12-29T12:11:54.969Z,0.93
2022-12-29T12:14:28.778Z,1.00
2022-12-29T12:17:10.138Z,0.65
2022-12-29T12:19:45.552Z,0.75
2022-12-29T12:22:32.357Z,1.05
2022-12-29T12:25:38.894Z,0.80
2022-12-29T12:28:36.746Z,0.90
2022-12-29T12:31:07.549Z,1.35
2022-12-29T12:33:48.737Z,1.05
2022-12-29T12:36:30.244Z,1.35
2022-12-29T12:39:00.389Z,1.23
2022-12-29T12:41:33.709Z,0.83
2022-12-29T12:44:11.689Z,1.40
2022-12-29T12:46:51.854Z,0.80
2022-12-29T12:49:49.552Z,0.90
2022-12-29T12:52:36.917Z,1.33
2022-12-29T12:55:50.937Z,1.00
2022-12-29T12:58:57.888Z,1.48
2022-12-29T13:01:54.212Z,1.23
2022-12-29T13:04:42.320Z,1.33
2022-12-29T13:07:18.261Z,1.40
2022-12-29T13:10:20.082Z,0.70
2022-12-29T13:13:24.870Z,0.98
2022-12-29T13:16:15.281Z,0.90
2022-12-29T13:18:41.701Z,2.15
2022-12-29T13:21:45.471Z,1.45
2022-12-29T13:24:28.159Z,0.80
2022-12-29T13:27:12.792Z,0.93
2022-12-29T13:29:45.309Z,0.50
2022-12-29T13:32:44.296Z,1.05
2022-12-29T13:35:40.112Z,0.70
2022-12-29T13:38:38.216Z,0.80
2022-12-29T13:41:09.383Z,0.80
2022-12-29T13:43:40.951Z,1.20
2022-12-29T13:46:16.343Z,0.98
2022-12-29T13:49:06.062Z,0.63
2022-12-29T13:51:34.344Z,0.90
2022-12-29T13:54:30.349Z,1.20
2022-12-29T13:57:21.498Z,0.90
2022-12-29T13:59:55.800Z,0.90
2022-12-29T14:02:43.635Z,0.77
2022-12-29T14:05:19.920Z,0.93
2022-12-29T14:07:47.562Z,0.98
2022-12-29T14:10:34.419Z,0.70
2022-12-29T14:13:05.569Z,0.47
2022-12-29T14:15:32.392Z,0.68
2022-12-29T14:18:11.120Z,0.50
2022-12-29T14:20:39.496Z,0.63
2022-12-29T14:23:12.074Z,0.73
2022-12-29T14:26:07.573Z,0.32
2022-12-29T14:28:36.996Z,0.50
2022-12-29T14:31:05.839Z,0.13
2022-12-29T14:33:34.362Z,0.50
2022-12-29T14:36:27.745Z,0.40
2022-12-29T14:38:54.233Z,0.28
2022-12-29T14:41:40.240Z,0.25
2022-12-29T14:44:20.734Z,0.20
2022-12-29T14:46:50.176Z,0.20
2022-12-29T14:49:22.820Z,0.47
2022-12-29T14:51:51.977Z,0.20
2022-12-29T14:54:37.204Z,0.30
2022-12-29T14:57:07.327Z,0.20
2022-12-29T14:59:36.019Z,0.47
2022-12-29T15:02:08.776Z,0.52
2022-12-29T15:04:36.713Z,0.55
2022-12-29T15:07:10.102Z,0.30
2022-12-29T15:09:41.579Z,0.30
2022-12-29T15:12:23.471Z,0.57
2022-12-29T15:14:55.298Z,0.47
2022-12-29T15:17:30.822Z,0.30
2022-12-29T15:19:59.400Z,0.47
2022-12-29T15:22:27.260Z,1.00
2022-12-29T15:24:55.802Z,0.70
2022-12-29T15:27:25.349Z,1.15
2022-12-29T15:30:04.148Z,0.60
2022-12-29T15:32:43.161Z,1.58
2022-12-29T15:35:35.632Z,0.90
2022-12-29T15:38:14.999Z,0.90
2022-12-29T15:40:45.184Z,0.90
2022-12-29T15:43:31.417Z,0.60
2022-12-29T15:45:57.995Z,0.45
2022-12-29T15:48:26.303Z,0.73
2022-12-29T15:50:53.126Z,0.75
2022-12-29T15:53:26.900Z,0.55
2022-12-29T15:55:57.031Z,0.73
2022-12-29T15:58:29.822Z,0.80
2022-12-29T16:00:59.208Z,0.60
2022-12-29T16:03:28.721Z,0.60
2022-12-29T16:05:58.420Z,0.75
2022-12-29T16:08:34.734Z,0.35
2022-12-29T16:11:03.971Z,0.70
2022-12-29T16:13:39.602Z,0.63
2022-12-29T16:16:45.001Z,0.70
2022-12-29T16:19:33.092Z,0.82
2022-12-29T16:22:01.803Z,0.82
2022-12-29T16:24:33.564Z,0.80
2022-12-29T16:27:14.343Z,0.57
2022-12-29T16:29:40.990Z,0.68
2022-12-29T16:32:29.403Z,0.88
2022-12-29T16:35:12.837Z,0.60
2022-12-29T16:37:40.318Z,0.40
2022-12-29T16:40:19.113Z,0.30
2022-12-29T16:42:52.210Z,0.40
2022-12-29T16:45:24.996Z,0.40
2022-12-29T16:48:06.786Z,0.75
2022-12-29T16:50:39.336Z,0.30
2022-12-29T16:53:08.700Z,0.77
2022-12-29T16:55:35.384Z,0.68
2022-12-29T16:58:02.032Z,0.77
2022-12-29T17:00:33.295Z,0.70
2022-12-29T17:03:01.742Z,0.82
2022-12-29T17:05:28.548Z,1.30
2022-12-29T17:07:56.047Z,0.90
2022-12-29T17:10:42.528Z,0.50
2022-12-29T17:13:09.608Z,0.30
2022-12-29T17:15:36.177Z,0.20
2022-12-29T17:18:03.603Z,0.40
2022-12-29T17:20:32.099Z,0.50
2022-12-29T17:23:00.163Z,0.40
2022-12-29T17:25:31.563Z,0.57
2022-12-29T17:28:01.359Z,0.40
2022-12-29T17:30:33.960Z,0.40
2022-12-29T17:33:35.176Z,0.20
2022-12-29T17:36:01.614Z,0.30
2022-12-29T17:38:30.942Z,0.60
2022-12-29T17:40:58.532Z,0.50
2022-12-29T17:43:25.448Z,0.60
2022-12-29T17:45:55.830Z,0.38
2022-12-29T17:48:23.164Z,0.50
2022-12-29T17:50:52.466Z,0.40
2022-12-29T17:53:22.634Z,0.50
2022-12-29T17:55:49.088Z,0.70
2022-12-29T17:58:17.212Z,0.35
2022-12-29T18:00:43.769Z,0.57
2022-12-29T18:03:26.306Z,0.70
2022-12-29T18:05:52.977Z,0.40
2022-12-29T18:08:19.554Z,0.40
2022-12-29T18:10:46.282Z,0.45
2022-12-29T18:13:27.203Z,0.30
2022-12-29T18:15:56.314Z,0.60
2022-12-29T18:18:26.957Z,0.43
2022-12-29T18:20:55.984Z,0.40
2022-12-29T18:23:35.072Z,0.55
2022-12-29T18:26:04.809Z,0.38
2022-12-29T18:28:31.830Z,0.57
2022-12-29T18:31:01.010Z,0.50
2022-12-29T18:33:28.526Z,0.60
2022-12-29T18:35:58.564Z,0.50
2022-12-29T18:38:25.680Z,0.57
2022-12-29T18:40:52.510Z,0.60
2022-12-29T18:43:19.677Z,0.88
2022-12-29T18:45:46.600Z,0.77
2022-12-29T18:48:17.744Z,0.65
2022-12-29T18:50:45.153Z,0.85
2022-12-29T18:53:23.659Z,0.60
2022-12-29T18:55:51.490Z,0.98
2022-12-29T18:58:18.240Z,0.97
2022-12-29T19:00:45.359Z,1.00
2022-12-29T19:03:17.703Z,0.77
2022-12-29T19:05:46.178Z,0.68
2022-12-29T19:08:13.739Z,0.80
2022-12-29T19:10:42.100Z,0.67
2022-12-29T19:13:16.481Z,0.40
2022-12-29T19:15:43.549Z,0.47
2022-12-29T19:18:43.122Z,0.60
2022-12-29T19:21:01.031Z,0.32
2022-12-29T19:23:27.702Z,0.80
2022-12-29T19:25:55.334Z,0.77
2022-12-29T19:28:24.517Z,0.70
2022-12-29T19:30:52.933Z,0.63
2022-12-29T19:33:21.730Z,1.15
2022-12-29T19:35:49.536Z,0.80
2022-12-29T19:38:16.356Z,0.95
2022-12-29T19:40:44.591Z,1.13
2022-12-29T19:43:12.190Z,1.35
2022-12-29T19:45:43.734Z,1.23
2022-12-29T19:48:18.659Z,0.63
2022-12-29T19:50:45.869Z,1.23
2022-12-29T19:53:13.065Z,0.60
2022-12-29T19:55:43.743Z,0.93
2022-12-29T19:58:10.437Z,1.10
2022-12-29T20:00:47.419Z,0.77
2022-12-29T20:03:14.040Z,0.77
2022-12-29T20:05:40.795Z,0.95
2022-12-29T20:08:07.352Z,1.15
2022-12-29T20:10:33.935Z,1.60
2022-12-29T20:13:00.418Z,0.77
2022-12-29T20:15:26.896Z,1.00
2022-12-29T20:20:39.954Z,1.20
2022-12-29T20:23:06.521Z,1.05
2022-12-29T20:25:48.636Z,1.57
2022-12-29T20:28:15.824Z,1.40
2022-12-29T20:30:42.687Z,1.23
2022-12-29T20:33:09.304Z,0.93
2022-12-29T20:35:36.695Z,1.88
2022-12-29T20:38:04.011Z,1.73
2022-12-29T20:40:30.673Z,1.30
2022-12-29T20:42:57.193Z,1.58
2022-12-29T20:45:23.912Z,0.60
2022-12-29T20:47:50.421Z,2.00
2022-12-29T20:50:17.054Z,0.83
2022-12-29T20:52:43.784Z,1.17
2022-12-29T20:55:10.287Z,1.80
2022-12-29T20:58:13.619Z,1.05
2022-12-29T21:00:23.327Z,1.48
2022-12-29T21:02:50.329Z,1.33
2022-12-29T21:05:25.513Z,0.65
2022-12-29T21:07:53.419Z,0.90
2022-12-29T21:10:20.382Z,1.05
2022-12-29T21:12:46.909Z,1.13
2022-12-29T21:15:15.409Z,0.97
2022-12-29T21:17:43.315Z,1.35
2022-12-29T21:20:19.544Z,0.60
2022-12-29T21:22:49.615Z,0.63
2022-12-29T21:25:16.164Z,1.00
2022-12-29T21:27:45.471Z,1.10
2022-12-29T21:30:12.770Z,0.95
2022-12-29T21:32:40.498Z,1.10
2022-12-29T21:35:08.275Z,0.70
2022-12-29T21:37:35.677Z,0.98
2022-12-29T21:40:02.848Z,0.70
2022-12-29T21:42:29.398Z,0.60
2022-12-29T21:45:20.163Z,0.90
2022-12-29T21:48:05.724Z,0.82
2022-12-29T21:50:32.400Z,0.93
2022-12-29T21:52:58.927Z,0.60
2022-12-29T21:55:25.426Z,0.80
2022-12-29T21:58:10.686Z,0.50
2022-12-29T22:00:55.718Z,0.70
2022-12-29T22:03:40.792Z,0.77
2022-12-29T22:06:29.970Z,0.50
2022-12-29T22:09:15.192Z,0.50
2022-12-29T22:12:00.203Z,0.75
2022-12-29T22:14:26.700Z,1.38
2022-12-29T22:16:53.156Z,0.77
2022-12-29T22:19:19.727Z,1.07
2022-12-29T22:21:46.219Z,0.55
2022-12-29T22:24:12.741Z,0.88
2022-12-29T22:26:39.215Z,1.27
2022-12-29T22:29:05.690Z,1.00
2022-12-29T22:31:32.870Z,0.70
2022-12-29T22:34:04.266Z,1.42
2022-12-29T22:36:32.430Z,0.60
2022-12-29T22:38:59.064Z,0.57
2022-12-29T22:41:27.413Z,0.93
2022-12-29T22:43:55.004Z,0.70
2022-12-29T22:46:21.748Z,0.88
2022-12-29T22:48:48.291Z,1.02
2022-12-29T22:51:14.766Z,0.50
2022-12-29T22:53:41.331Z,0.80
2022-12-29T22:56:10.522Z,1.13
2022-12-29T22:58:44.633Z,0.88
2022-12-29T23:01:12.771Z,0.65
2022-12-29T23:03:39.765Z,0.57
2022-12-29T23:06:07.815Z,1.10
2022-12-29T23:08:37.299Z,0.70
2022-12-29T23:11:05.703Z,0.50
2022-12-29T23:13:32.479Z,0.77
2022-12-29T23:15:59.074Z,0.52
2022-12-29T23:18:26.712Z,0.43
2022-12-29T23:20:53.268Z,0.73
2022-12-29T23:23:46.519Z,0.68
2022-12-29T23:26:14.854Z,0.40
2022-12-29T23:28:42.498Z,0.65
2022-12-29T23:31:09.060Z,1.33
2022-12-29T23:33:35.612Z,0.87
2022-12-29T23:36:02.113Z,0.80
2022-12-29T23:38:28.625Z,0.68
2022-12-29T23:40:55.206Z,0.57
2022-12-29T23:43:21.738Z,0.70
2022-12-29T23:45:50.964Z,0.47
2022-12-29T23:48:18.282Z,0.60
2022-12-29T23:50:44.807Z,0.70
2022-12-29T23:53:12.312Z,0.68
2022-12-29T23:55:41.632Z,0.63
2022-12-29T23:58:08.987Z,0.87
